world map with UZC marked

UZC - Airport

This information may not be accurate or current and is not valid for navigation or flight planning. No warranty of fitness for any purpose is made or implied.

flag of Serbia

Donate via PayPal

Additional information is available on the NEW Great Circle Mapper

Location
City:  Uzice, Serbia
Name:Uzice-Ponikve
ICAO / IATA:LYUZ / UZC

Details
Type:Airport (Aerodrome, Airfield)
Latitude:43°53'56"N (43.898889)
Longitude:19°41'51"E (19.697500)
Elevation:2966 ft (904 m)
Runways:1
Longest:10499 × 148 ft (3200 × 45 m)

Time
Timezone:UTC+1 (DST+4)
Local Time:

Weather
METAR:LYUZ  041400Z 32009KT 0300 FZFG VV001 M02/M03 Q1024
TAF:LYUZ  041100Z 0412/0512 31008KT 0200 FZFG VV002 TXM01/0413Z TNM04/0506Z TEMPO 0412/0420 SN

Related Locations
Nearby:
Farthest:CHT: 11635 mi / 18724 km
Waitangi [Tuuta], CIT, NZ

Find:

   beyond  
but within

Other Information
Maps:
Sources:

  


 


Great Circle Mapper   Great Circle Mapper
Great Circle Mapper FAQ   Great Circle Mapper FAQ
  Karl's Home Page
KLSē   KLSē Home
   GC on Facebook
Airlines of the World   Airlines of the World
Donate via PayPal


Copyright © 2004-2019, Karl L. Swartz. All rights reserved.
All trademarks mentioned herein belong to their respective owners.

Please see credits for attribution and copyright information.

Karl Swartz <karl@kls2.com>
  Powered by FreeBSD
Valid HTML 4.01!
Labeled with ICRA
hCard Microformat
Geo Microformat